ADDS METAR Data INFO
IDs: Format: Raw Decoded Include TAF

Data at: 2345 UTC 24 Feb 2018

KGLE 242335Z AUTO 00000KT 10SM CLR 14/06 A2991 RMK AO2 T01360060
KGLE 242315Z AUTO 32004KT 10SM CLR 14/06 A2990 RMK AO2 T01440055
KGLE 242255Z AUTO 32003KT 10SM CLR 15/06 A2990 RMK AO2 T01470064
KGLE 242235Z AUTO 32006KT 10SM CLR 14/07 A2989 RMK AO2 T01440069
KGLE 242215Z AUTO 33007KT 10SM CLR 15/07 A2989 RMK AO2 T01450071
KGLE 242155Z AUTO 32008KT 10SM CLR 15/07 A2989 RMK AO2 T01450073
KGLE 242135Z AUTO 34007KT 10SM CLR 14/08 A2988 RMK AO2 T01430078
KGLE 242115Z AUTO 32011KT 10SM CLR 14/08 A2988 RMK AO2 T01410082
KGLE 242055Z AUTO 33010KT 10SM CLR 14/09 A2987 RMK AO2 T01360087
KGLE 242035Z AUTO 31010KT 10SM CLR 13/09 A2987 RMK AO2 T01300090
KGLE 242015Z AUTO 33010G16KT 10SM CLR 12/09 A2987 RMK AO2 T01240085
KGLE 241955Z AUTO 32012KT 10SM BKN013 12/09 A2987 RMK AO2 T01220091
KGLE 241935Z AUTO 35012G16KT 10SM OVC013 12/09 A2988 RMK AO2 T01160088
KGLE 241915Z AUTO 34012G15KT 10SM OVC013 11/09 A2989 RMK AO2 T01110086
KGLE 241855Z AUTO 35009G14KT 10SM OVC011 11/08 A2989 RMK AO2 T01050083
KGLE 241835Z AUTO 35010G14KT 10SM BKN009 BKN030 10/09 A2990 RMK AO2 T01040085
KGLE 241815Z AUTO 35010KT 10SM BKN007 OVC030 10/08 A2989 RMK AO2 T00970082
KGLE 241755Z AUTO 34010G16KT 10SM OVC007 09/08 A2990 RMK AO2 60073 T00850075 10097 20056
KGLE 241735Z AUTO 35012KT 10SM BKN007 OVC019 07/07 A2990 RMK AO2 T00730065
KGLE 241715Z AUTO 35011G15KT 10SM SCT007 OVC021 07/06 A2990 RMK AO2 T00680061
KGLE 241655Z AUTO 34008KT 4SM BR SCT007 OVC021 06/06 A2989 RMK AO2 P0004 T00640057
KGLE 241635Z AUTO 35009G18KT 4SM -RA SCT007 OVC019 06/05 A2988 RMK AO2 P0004 T00600054
KGLE 241615Z AUTO 34012G17KT 7SM -RA SCT007 SCT014 OVC023 06/06 A2989 RMK AO2 P0001 T00600055
KGLE 241555Z AUTO 34011G19KT 1 1/2SM -RA BKN009 OVC017 06/06 A2988 RMK AO2 P0017 T00590055
KGLE 241535Z AUTO 33015G21KT 4SM RA BKN005 OVC009 07/07 A2988 RMK AO2 P0005 T00720068
KGLE 241515Z AUTO 34010G19KT 1 1/2SM -RA OVC003 09/09 A2984 RMK AO2 P0001 T00900086
KGLE 241455Z AUTO 00000KT 10SM -RA OVC003 09/09 A2980 RMK AO2 P0038 60051 T00930090
KGLE 241435Z AUTO 27003KT 1SM -SN OVC003 08/07 A2980 RMK AO2 P0024 T00750071
KGLE 241415Z AUTO 00000KT 3SM RA BKN003 OVC009 07/07 A2982 RMK AO2 P0003 T00710068
KGLE 241355Z AUTO 00000KT 2SM -RA OVC003 07/07 A2982 RMK AO2 P0013 T00680065
KGLE 241335Z AUTO 00000KT 1 1/4SM +RA OVC003 07/06 A2988 RMK AO2 P0005 T00650061
KGLE 241315Z AUTO 00000KT 1 1/2SM BR OVC003 07/06 A2985 RMK AO2 T00650061
KGLE 241255Z AUTO 00000KT 1 1/2SM -RA OVC003 06/06 A2985 RMK AO2 T00610059
KGLE 241235Z AUTO 10003KT 1 1/2SM BR OVC003 06/06 A2987 RMK AO2 T00600056
KGLE 241215Z AUTO 00000KT 1 3/4SM BR OVC003 06/06 A2989 RMK AO2 T00580055
KGLE 241155Z AUTO 00000KT 1 1/2SM BR OVC003 06/05 A2989 RMK AO2 60001 70052 T00560052 10062 20053
KGLE 241135Z AUTO 00000KT 2 1/2SM -RA OVC003 06/05 A2991 RMK AO2 T00560052
KGLE 241115Z AUTO 08004KT 1 3/4SM BR OVC003 06/05 A2990 RMK AO2 T00550051
KGLE 241055Z AUTO 00000KT 2SM BR OVC003 06/05 A2991 RMK AO2 T00550051
KGLE 241035Z AUTO 00000KT 1 3/4SM BR OVC005 06/05 A2993 RMK AO2 T00550051
KGLE 241015Z AUTO 00000KT 2SM BR OVC007 06/05 A2995 RMK AO2 T00560052
KGLE 240955Z AUTO 00000KT 2SM BR BKN003 OVC007 06/05 A2995 RMK AO2 T00550051
KGLE 240935Z AUTO 00000KT 1 3/4SM BR OVC003 06/05 A2996 RMK AO2 T00550050
KGLE 240915Z AUTO 00000KT 2SM BR OVC003 06/05 A2996 RMK AO2 T00550050
KGLE 240855Z AUTO 00000KT 1 3/4SM BR OVC003 06/05 A2997 RMK AO2 60001 T00550050
KGLE 240835Z AUTO 00000KT 3SM BR OVC003 06/05 A2998 RMK AO2 T00550051
KGLE 240815Z AUTO 00000KT 4SM BR BKN005 OVC009 06/05 A2999 RMK AO2 T00550050
KGLE 240755Z AUTO 00000KT 5SM BR BKN005 OVC011 06/05 A2999 RMK AO2 T00550050
KGLE 240735Z AUTO 00000KT 5SM BR OVC009 06/05 A3000 RMK AO2 T00550050
KGLE 240715Z AUTO 00000KT 5SM BR SCT004 OVC009 06/05 A3002 RMK AO2 T00550051
KGLE 240655Z AUTO 36003KT 3SM -DZ SCT004 OVC009 06/05 A3002 RMK AO2 P0001 T00570053
KGLE 240635Z AUTO 00000KT 3SM RA SCT006 OVC011 06/06 A3002 RMK AO2 P0001 T00610057
KGLE 240615Z AUTO 00000KT 4SM BR OVC011 06/06 A3003 RMK AO2 T00620058
KGLE 240555Z AUTO 00000KT 10SM OVC013 06/06 A3004 RMK AO2 60006 T00610057 10063 20050 400630005
KGLE 240535Z AUTO 00000KT 10SM -RA SCT002 OVC013 06/06 A3005 RMK AO2 T00620058
KGLE 240515Z AUTO 00000KT 10SM -DZ OVC013 06/06 A3005 RMK AO2 T00620058
KGLE 240455Z AUTO 00000KT 10SM -DZ OVC013 06/06 A3005 RMK AO2 P0002 T00620058
KGLE 240435Z AUTO 00000KT 10SM OVC015 06/06 A3006 RMK AO2 P0001 T00610057
KGLE 240415Z AUTO 00000KT 10SM -RA OVC017 06/06 A3005 RMK AO2 P0001 T00610057
KGLE 240355Z AUTO 00000KT 7SM -RA OVC017 06/06 A3006 RMK AO2 P0001 T00600055
KGLE 240335Z AUTO 00000KT 7SM DZ OVC017 06/06 A3006 RMK AO2 P0001 T00590055
KGLE 240315Z AUTO 00000KT 10SM -RA OVC017 06/05 A3007 RMK AO2 T00570053
KGLE 240255Z AUTO 00000KT 10SM RA OVC013 06/05 A3007 RMK AO2 P0001 60003 T00560052
KGLE 240235Z AUTO 00000KT 10SM RA OVC013 06/05 A3007 RMK AO2 T00550050
KGLE 240215Z AUTO 03003KT 10SM OVC013 05/05 A3007 RMK AO2 T00530050
KGLE 240155Z AUTO 02003KT 10SM DZ OVC013 05/05 A3007 RMK AO2 P0002 T00520048
KGLE 240135Z AUTO 02005KT 4SM RA SCT005 OVC013 05/05 A3007 RMK AO2 P0002 T00500046
KGLE 240115Z AUTO 36006KT 2SM DZ SCT005 OVC009 05/05 A3008 RMK AO2 T00500045
KGLE 240055Z AUTO 36006KT 2SM BR OVC009 05/05 A3008 RMK AO2 T00500046
KGLE 240035Z AUTO 36005KT 2 1/2SM BR BKN004 OVC009 05/05 A3008 RMK AO2 T00500046
KGLE 240015Z AUTO 35004KT 2SM BR BKN004 OVC008 06/05 A3008 RMK AO2 T00560052
KGLE 232355Z AUTO 01003KT 1 1/2SM -RA SCT004 OVC008 06/05 A3008 RMK AO2 P0002 60009 T00570053 10063 20037
KGLE 232335Z AUTO 02003KT 1 3/4SM -DZ BKN004 OVC008 06/05 A3008 RMK AO2 P0002 T00560052
KGLE 232315Z AUTO 02005KT 1 1/2SM -RA BKN004 OVC008 06/06 A3008 RMK AO2 P0001 T00600056
KGLE 232255Z AUTO 01003KT 1 1/4SM -DZ OVC004 06/06 A3009 RMK AO2 P0001 T00600056
KGLE 232235Z AUTO 01003KT 1 1/4SM -DZ OVC004 06/06 A3009 RMK AO2 P0001 T00610057
KGLE 232215Z AUTO 01003KT 1 1/4SM -RA OVC004 06/06 A3010 RMK AO2 T00620058
KGLE 232055Z AUTO 00000KT 3/4SM -RA OVC004 06/06 A3011 RMK AO2 P0001 60001 T00600056
KGLE 232035Z AUTO 00000KT 3/4SM BR OVC004 06/06 A3010 RMK AO2 T00600055
KGLE 232015Z AUTO 11005KT 1SM BR OVC004 06/05 A3010 RMK AO2 T00570054
KGLE 231955Z AUTO 08006KT 2 1/2SM BR OVC004 06/05 A3013 RMK AO2 T00570053
KGLE 231935Z AUTO 08005KT 3SM BR OVC004 06/05 A3013 RMK AO2 T00550050
KGLE 231915Z AUTO 08006KT 2SM BR OVC004 05/05 A3015 RMK AO2 T00510047
KGLE 231855Z AUTO 09006KT 2 1/2SM BR OVC004 05/04 A3017 RMK AO2 T00470044
KGLE 231835Z AUTO 00000KT 3SM BR OVC004 04/04 A3020 RMK AO2 T00420038
KGLE 231815Z AUTO 00000KT 3SM BR OVC004 04/04 A3021 RMK AO2 T00400036
KGLE 231755Z AUTO 00000KT 5SM BR OVC004 04/03 A3022 RMK AO2 60036 T00370033 10037 20012
KGLE 231735Z AUTO 00000KT 5SM BR BKN004 OVC010 03/03 A3023 RMK AO2 T00340030
KGLE 231715Z AUTO 00000KT 3SM BR BKN004 BKN010 OVC018 03/03 A3024 RMK AO2 T00310026
KGLE 231655Z AUTO 00000KT 1 1/4SM RA SCT004 OVC016 03/02 A3025 RMK AO2 P0006 T00260022
KGLE 231635Z AUTO 02009KT 1 1/2SM +RA SCT005 OVC016 03/02 A3024 RMK AO2 P0005 T00250021
KGLE 231615Z AUTO 01012KT 10SM -RA SCT018 BKN026 OVC050 03/02 A3025 RMK AO2 P0001 T00260023
KGLE 231555Z AUTO 08008KT 1 1/4SM -SN SCT003 BKN012 OVC026 02/02 A3023 RMK AO2 P0011 T00200016
KGLE 231535Z AUTO 36005KT 2SM RA SCT006 OVC014 02/01 A3025 RMK AO2 P0001 T00160012
KGLE 231515Z AUTO 05007KT 1 1/2SM RA SCT006 BKN012 OVC018 02/01 A3022 RMK AO2 T00150012
KGLE 231455Z AUTO 03006KT 5SM -RA SCT011 OVC017 02/01 A3023 RMK AO2 P0004 60019 T00150012
KGLE 231435Z AUTO 00000KT 4SM -DZ SCT006 BKN011 OVC017 02/01 A3023 RMK AO2 P0004 T00150011
KGLE 231415Z AUTO 00000KT 2 1/2SM -SN BKN004 OVC011 01/01 A3025 RMK AO2 VIS 1 1/2V4 P0004 T00140010
KGLE 231355Z AUTO 00000KT 1 1/2SM -SN BKN002 OVC007 02/01 A3023 RMK AO2 P0007 T00150011
KGLE 231335Z AUTO 00000KT 4SM -RA SCT014 OVC018 02/01 A3023 RMK AO2 T00150012
KGLE 231315Z AUTO 00000KT 5SM DZ SCT003 SCT007 OVC020 01/01 A3024 RMK AO2 T00140010
KGLE 231255Z AUTO 05003KT 5SM -RA SCT004 BKN008 OVC020 02/01 A3023 RMK AO2 P0008 T00160012
KGLE 231235Z AUTO 00000KT 5SM -RA BKN004 OVC018 01/01 A3024 RMK AO2 P0008 T00140010
KGLE 231215Z AUTO 00000KT 2SM -SN BKN002 BKN007 OVC018 01/01 A3024 RMK AO2 P0007 T00120010
KGLE 231155Z AUTO 23003KT 1 1/4SM BR OVC002 01/01 A3027 RMK AO2 7//// T00130010 10013 20005